VIAG/AGR METAR and TAF weather

Enter ICAO airport designator
Station Type Date Time Source
VIAG METAR 2022/06/21 04:30 UTC NOAA

VIAG 210430Z 30006KT 8000 FEW025 BKN100 32/25 Q1000 NOSIG


Station Type Date Time Source
VIAG Decoded METAR 2022/06/21 04:30 UTC NOAA

Agra, India (VIAG) 27-09N 077-58E 169M
Jun 21, 2022 - 12:30 AM EDT / 2022.06.21 0430 UTC
Wind: from the WNW (300 degrees) at 7 MPH (6 KT):0
Visibility: 4 mile(s):0
Sky conditions: mostly cloudy
Temperature: 89 F (32 C)
Heat index: 100.6 F (38.1 C):1
Dew Point: 77 F (25 C)
Relative Humidity: 66%
Pressure (altimeter): 29.53 in. Hg (1000 hPa)
ob: VIAG 210430Z 30006KT 8000 FEW025 BKN100 32/25 Q1000 NOSIG
cycle: 4

Station Type Date Time Source
VIAG TAF 2022/06/30 00:30 UTC NOAA

TAF VIAG 292130Z 3000/3012 10005KT 6000 RA SCT015 FEW030TCUCB BKN090
BECMG 3007/3008 07010KT 6000 RA SCT015 FEW030TCUCB BKN090
TEMPO 3008/3012 12010G20KT 3000 TSRA BKN015 FEW030TCUCB OVC090

Example: see airport list